sensor_id;sensor_type;location;lat;lon;timestamp;temperature;humidity
37356;DHT22;48747;50.250;18.848;2022-09-09T00:00:53;17.50;99.90
37356;DHT22;48747;50.250;18.848;2022-09-09T00:03:02;17.40;99.90
37356;DHT22;48747;50.250;18.848;2022-09-09T00:07:48;17.30;99.90
37356;DHT22;48747;50.250;18.848;2022-09-09T00:10:14;17.20;99.90
37356;DHT22;48747;50.250;18.848;2022-09-09T00:12:12;17.20;99.90
37356;DHT22;48747;50.250;18.848;2022-09-09T00:14:37;17.10;99.90
37356;DHT22;48747;50.250;18.848;2022-09-09T00:16:27;17.10;99.90
37356;DHT22;48747;50.250;18.848;2022-09-09T00:20:45;17.10;99.90
37356;DHT22;48747;50.250;18.848;2022-09-09T00:22:53;17.00;99.90
37356;DHT22;48747;50.250;18.848;2022-09-09T00:25:01;17.00;99.90
37356;DHT22;48747;50.250;18.848;2022-09-09T00:27:39;16.90;99.90
37356;DHT22;48747;50.250;18.848;2022-09-09T00:29:22;16.80;99.90
37356;DHT22;48747;50.250;18.848;2022-09-09T00:31:28;16.80;99.90
37356;DHT22;48747;50.250;18.848;2022-09-09T00:33:32;16.80;99.90
37356;DHT22;48747;50.250;18.848;2022-09-09T00:35:44;16.80;99.90
37356;DHT22;48747;50.250;18.848;2022-09-09T00:37:46;16.70;99.90
37356;DHT22;48747;50.250;18.848;2022-09-09T00:39:53;16.70;99.90
37356;DHT22;48747;50.250;18.848;2022-09-09T00:42:13;16.70;99.90
37356;DHT22;48747;50.250;18.848;2022-09-09T00:54:12;16.60;99.90
37356;DHT22;48747;50.250;18.848;2022-09-09T00:56:17;16.60;99.90
37356;DHT22;48747;50.250;18.848;2022-09-09T00:58:20;16.50;99.90
37356;DHT22;48747;50.250;18.848;2022-09-09T01:00:46;16.50;99.90
37356;DHT22;48747;50.250;18.848;2022-09-09T01:02:46;16.50;99.90
37356;DHT22;48747;50.250;18.848;2022-09-09T01:04:46;16.50;99.90
37356;DHT22;48747;50.250;18.848;2022-09-09T01:06:52;16.50;99.90
37356;DHT22;48747;50.250;18.848;2022-09-09T01:11:31;16.50;99.90
37356;DHT22;48747;50.250;18.848;2022-09-09T01:13:33;16.50;99.90
37356;DHT22;48747;50.250;18.848;2022-09-09T01:15:36;16.50;99.90
37356;DHT22;48747;50.250;18.848;2022-09-09T01:17:49;16.50;99.90
37356;DHT22;48747;50.250;18.848;2022-09-09T01:19:59;16.50;99.90
37356;DHT22;48747;50.250;18.848;2022-09-09T01:22:03;16.50;99.90
37356;DHT22;48747;50.250;18.848;2022-09-09T01:26:39;16.50;99.90
37356;DHT22;48747;50.250;18.848;2022-09-09T01:28:48;16.50;99.90
37356;DHT22;48747;50.250;18.848;2022-09-09T01:30:53;16.50;99.90
37356;DHT22;48747;50.250;18.848;2022-09-09T01:32:58;16.50;99.90
37356;DHT22;48747;50.250;18.848;2022-09-09T01:35:03;16.50;99.90
37356;DHT22;48747;50.250;18.848;2022-09-09T01:37:11;16.50;99.90
37356;DHT22;48747;50.250;18.848;2022-09-09T01:39:15;16.50;99.90
37356;DHT22;48747;50.250;18.848;2022-09-09T01:41:20;16.50;99.90
37356;DHT22;48747;50.250;18.848;2022-09-09T01:43:24;16.50;99.90
37356;DHT22;48747;50.250;18.848;2022-09-09T01:45:30;16.50;99.90
37356;DHT22;48747;50.250;18.848;2022-09-09T01:47:34;16.50;99.90
37356;DHT22;48747;50.250;18.848;2022-09-09T01:49:38;16.50;99.90
37356;DHT22;48747;50.250;18.848;2022-09-09T01:51:42;16.60;99.90
37356;DHT22;48747;50.250;18.848;2022-09-09T01:53:47;16.60;99.90
37356;DHT22;48747;50.250;18.848;2022-09-09T01:58:18;16.60;99.90
37356;DHT22;48747;50.250;18.848;2022-09-09T02:00:20;16.60;99.90
37356;DHT22;48747;50.250;18.848;2022-09-09T02:02:30;16.60;99.90
37356;DHT22;48747;50.250;18.848;2022-09-09T02:04:56;16.60;99.90
37356;DHT22;48747;50.250;18.848;2022-09-09T02:06:58;16.60;99.90
37356;DHT22;48747;50.250;18.848;2022-09-09T02:09:10;16.50;99.90
37356;DHT22;48747;50.250;18.848;2022-09-09T02:11:16;16.50;99.90
37356;DHT22;48747;50.250;18.848;2022-09-09T02:13:21;16.50;99.90
37356;DHT22;48747;50.250;18.848;2022-09-09T02:15:36;16.50;99.90
37356;DHT22;48747;50.250;18.848;2022-09-09T02:17:41;16.40;99.90
37356;DHT22;48747;50.250;18.848;2022-09-09T02:19:53;16.30;99.90
37356;DHT22;48747;50.250;18.848;2022-09-09T02:21:56;16.30;99.90
37356;DHT22;48747;50.250;18.848;2022-09-09T02:24:02;16.30;99.90
37356;DHT22;48747;50.250;18.848;2022-09-09T02:26:07;16.30;99.90
37356;DHT22;48747;50.250;18.848;2022-09-09T02:28:14;16.30;99.90
37356;DHT22;48747;50.250;18.848;2022-09-09T02:30:19;16.20;99.90
37356;DHT22;48747;50.250;18.848;2022-09-09T02:32:24;16.10;99.90
37356;DHT22;48747;50.250;18.848;2022-09-09T02:34:28;16.10;99.90
37356;DHT22;48747;50.250;18.848;2022-09-09T02:36:34;16.10;99.90
37356;DHT22;48747;50.250;18.848;2022-09-09T02:38:41;16.10;99.90
37356;DHT22;48747;50.250;18.848;2022-09-09T02:40:44;16.00;99.90
37356;DHT22;48747;50.250;18.848;2022-09-09T02:42:49;16.00;99.90
37356;DHT22;48747;50.250;18.848;2022-09-09T02:44:52;15.90;99.90
37356;DHT22;48747;50.250;18.848;2022-09-09T02:52:08;15.70;99.90
37356;DHT22;48747;50.250;18.848;2022-09-09T02:54:27;15.70;99.90
37356;DHT22;48747;50.250;18.848;2022-09-09T02:56:34;15.60;99.90
37356;DHT22;48747;50.250;18.848;2022-09-09T02:58:38;15.60;99.90
37356;DHT22;48747;50.250;18.848;2022-09-09T03:00:42;15.60;99.90
37356;DHT22;48747;50.250;18.848;2022-09-09T03:02:45;15.60;99.90
37356;DHT22;48747;50.250;18.848;2022-09-09T03:04:48;15.60;99.90
37356;DHT22;48747;50.250;18.848;2022-09-09T03:06:53;15.50;99.90
37356;DHT22;48747;50.250;18.848;2022-09-09T03:08:58;15.50;99.90
37356;DHT22;48747;50.250;18.848;2022-09-09T03:11:03;15.50;99.90
37356;DHT22;48747;50.250;18.848;2022-09-09T03:13:16;15.50;99.90
37356;DHT22;48747;50.250;18.848;2022-09-09T03:15:12;15.50;99.90
37356;DHT22;48747;50.250;18.848;2022-09-09T03:17:17;15.50;99.90
37356;DHT22;48747;50.250;18.848;2022-09-09T03:19:21;15.50;99.90
37356;DHT22;48747;50.250;18.848;2022-09-09T03:21:24;15.50;99.90
37356;DHT22;48747;50.250;18.848;2022-09-09T03:23:27;15.50;99.90
37356;DHT22;48747;50.250;18.848;2022-09-09T03:25:36;15.40;99.90
37356;DHT22;48747;50.250;18.848;2022-09-09T03:27:35;15.40;99.90
37356;DHT22;48747;50.250;18.848;2022-09-09T03:29:38;15.40;99.90
37356;DHT22;48747;50.250;18.848;2022-09-09T03:31:41;15.40;99.90
37356;DHT22;48747;50.250;18.848;2022-09-09T03:33:44;15.40;99.90
37356;DHT22;48747;50.250;18.848;2022-09-09T03:35:48;15.30;99.90
37356;DHT22;48747;50.250;18.848;2022-09-09T03:37:51;15.30;99.90
37356;DHT22;48747;50.250;18.848;2022-09-09T03:39:55;15.30;99.90
37356;DHT22;48747;50.250;18.848;2022-09-09T03:41:59;15.30;99.90
37356;DHT22;48747;50.250;18.848;2022-09-09T03:44:09;15.20;99.90
37356;DHT22;48747;50.250;18.848;2022-09-09T03:46:08;15.20;99.90
37356;DHT22;48747;50.250;18.848;2022-09-09T03:48:11;15.20;99.90
37356;DHT22;48747;50.250;18.848;2022-09-09T03:50:14;15.20;99.90
37356;DHT22;48747;50.250;18.848;2022-09-09T03:52:19;15.20;99.90
37356;DHT22;48747;50.250;18.848;2022-09-09T03:54:24;15.10;99.90
37356;DHT22;48747;50.250;18.848;2022-09-09T03:56:27;15.10;99.90
37356;DHT22;48747;50.250;18.848;2022-09-09T03:58:32;15.10;99.90
37356;DHT22;48747;50.250;18.848;2022-09-09T04:00:37;15.10;99.90
37356;DHT22;48747;50.250;18.848;2022-09-09T04:02:47;15.10;99.90
37356;DHT22;48747;50.250;18.848;2022-09-09T04:04:48;15.10;99.90
37356;DHT22;48747;50.250;18.848;2022-09-09T04:06:53;15.00;99.90
37356;DHT22;48747;50.250;18.848;2022-09-09T04:08:56;15.00;99.90
37356;DHT22;48747;50.250;18.848;2022-09-09T04:11:00;14.90;99.90
37356;DHT22;48747;50.250;18.848;2022-09-09T04:13:05;14.90;99.90
37356;DHT22;48747;50.250;18.848;2022-09-09T04:15:08;14.90;99.90
37356;DHT22;48747;50.250;18.848;2022-09-09T04:17:12;14.90;99.90
37356;DHT22;48747;50.250;18.848;2022-09-09T04:19:15;14.90;99.90
37356;DHT22;48747;50.250;18.848;2022-09-09T04:21:18;14.90;99.90
37356;DHT22;48747;50.250;18.848;2022-09-09T04:23:24;14.90;99.90
37356;DHT22;48747;50.250;18.848;2022-09-09T04:25:29;14.90;99.90
37356;DHT22;48747;50.250;18.848;2022-09-09T04:27:32;14.90;99.90
37356;DHT22;48747;50.250;18.848;2022-09-09T04:29:35;14.90;99.90
37356;DHT22;48747;50.250;18.848;2022-09-09T04:31:38;14.90;99.90
37356;DHT22;48747;50.250;18.848;2022-09-09T04:33:43;14.90;99.90
37356;DHT22;48747;50.250;18.848;2022-09-09T04:35:48;14.90;99.90
37356;DHT22;48747;50.250;18.848;2022-09-09T04:37:51;14.90;99.90
37356;DHT22;48747;50.250;18.848;2022-09-09T04:39:54;14.90;99.90
37356;DHT22;48747;50.250;18.848;2022-09-09T04:41:57;14.90;99.90
37356;DHT22;48747;50.250;18.848;2022-09-09T04:44:01;14.90;99.90
37356;DHT22;48747;50.250;18.848;2022-09-09T04:46:06;14.90;99.90
37356;DHT22;48747;50.250;18.848;2022-09-09T04:48:09;15.00;99.90
37356;DHT22;48747;50.250;18.848;2022-09-09T04:50:14;15.00;99.90
37356;DHT22;48747;50.250;18.848;2022-09-09T04:52:18;15.00;99.90
37356;DHT22;48747;50.250;18.848;2022-09-09T04:54:26;15.00;99.90
37356;DHT22;48747;50.250;18.848;2022-09-09T04:56:30;15.00;99.90
37356;DHT22;48747;50.250;18.848;2022-09-09T04:58:36;15.00;99.90
37356;DHT22;48747;50.250;18.848;2022-09-09T05:00:38;15.00;99.90
37356;DHT22;48747;50.250;18.848;2022-09-09T05:02:41;15.10;99.90
37356;DHT22;48747;50.250;18.848;2022-09-09T05:04:47;15.10;99.90
37356;DHT22;48747;50.250;18.848;2022-09-09T05:06:51;15.20;99.90
37356;DHT22;48747;50.250;18.848;2022-09-09T05:08:56;15.20;99.90
37356;DHT22;48747;50.250;18.848;2022-09-09T05:11:00;15.20;99.90
37356;DHT22;48747;50.250;18.848;2022-09-09T05:13:03;15.30;99.90
37356;DHT22;48747;50.250;18.848;2022-09-09T05:15:08;15.30;99.90
37356;DHT22;48747;50.250;18.848;2022-09-09T05:17:12;15.40;99.90
37356;DHT22;48747;50.250;18.848;2022-09-09T05:19:15;15.40;99.90
37356;DHT22;48747;50.250;18.848;2022-09-09T05:21:21;15.50;99.90
37356;DHT22;48747;50.250;18.848;2022-09-09T05:23:25;15.60;99.90
37356;DHT22;48747;50.250;18.848;2022-09-09T05:25:29;15.70;99.90
37356;DHT22;48747;50.250;18.848;2022-09-09T05:27:34;15.70;99.90
37356;DHT22;48747;50.250;18.848;2022-09-09T05:29:37;15.80;99.90
37356;DHT22;48747;50.250;18.848;2022-09-09T05:31:42;15.90;99.90
37356;DHT22;48747;50.250;18.848;2022-09-09T05:33:46;15.90;99.90
37356;DHT22;48747;50.250;18.848;2022-09-09T05:36:04;15.90;99.90
37356;DHT22;48747;50.250;18.848;2022-09-09T05:38:03;16.00;99.90
37356;DHT22;48747;50.250;18.848;2022-09-09T05:40:08;16.10;99.90
37356;DHT22;48747;50.250;18.848;2022-09-09T05:42:12;16.10;99.90
37356;DHT22;48747;50.250;18.848;2022-09-09T05:44:17;16.20;99.90
37356;DHT22;48747;50.250;18.848;2022-09-09T05:46:23;16.30;99.90
37356;DHT22;48747;50.250;18.848;2022-09-09T05:48:28;16.30;99.90
37356;DHT22;48747;50.250;18.848;2022-09-09T05:50:32;16.40;99.90
37356;DHT22;48747;50.250;18.848;2022-09-09T05:52:35;16.40;99.90
37356;DHT22;48747;50.250;18.848;2022-09-09T05:54:38;16.50;99.90
37356;DHT22;48747;50.250;18.848;2022-09-09T05:56:43;16.50;99.90
37356;DHT22;48747;50.250;18.848;2022-09-09T05:58:51;16.60;99.90
37356;DHT22;48747;50.250;18.848;2022-09-09T06:01:01;16.70;99.90
37356;DHT22;48747;50.250;18.848;2022-09-09T06:03:04;16.70;99.90
37356;DHT22;48747;50.250;18.848;2022-09-09T06:05:07;16.80;99.90
37356;DHT22;48747;50.250;18.848;2022-09-09T06:07:10;16.90;99.90
37356;DHT22;48747;50.250;18.848;2022-09-09T06:09:15;17.00;99.90
37356;DHT22;48747;50.250;18.848;2022-09-09T06:11:23;17.00;99.90
37356;DHT22;48747;50.250;18.848;2022-09-09T06:13:28;17.10;99.90
37356;DHT22;48747;50.250;18.848;2022-09-09T06:15:31;17.10;99.90
37356;DHT22;48747;50.250;18.848;2022-09-09T06:17:34;17.20;99.90
37356;DHT22;48747;50.250;18.848;2022-09-09T06:19:37;17.30;99.90
37356;DHT22;48747;50.250;18.848;2022-09-09T06:21:40;17.40;99.90
37356;DHT22;48747;50.250;18.848;2022-09-09T06:23:45;17.40;99.90
37356;DHT22;48747;50.250;18.848;2022-09-09T06:25:49;17.50;99.90
37356;DHT22;48747;50.250;18.848;2022-09-09T06:27:53;17.60;99.90
37356;DHT22;48747;50.250;18.848;2022-09-09T06:29:56;17.70;99.90
37356;DHT22;48747;50.250;18.848;2022-09-09T06:32:00;17.70;99.90
37356;DHT22;48747;50.250;18.848;2022-09-09T06:34:08;17.80;99.90
37356;DHT22;48747;50.250;18.848;2022-09-09T06:36:14;17.80;99.90
37356;DHT22;48747;50.250;18.848;2022-09-09T06:38:19;17.80;99.90
37356;DHT22;48747;50.250;18.848;2022-09-09T06:40:30;17.90;99.90
37356;DHT22;48747;50.250;18.848;2022-09-09T06:42:31;17.90;99.90
37356;DHT22;48747;50.250;18.848;2022-09-09T06:44:48;17.90;99.90
37356;DHT22;48747;50.250;18.848;2022-09-09T06:46:39;18.00;99.90
37356;DHT22;48747;50.250;18.848;2022-09-09T06:48:43;18.10;99.90
37356;DHT22;48747;50.250;18.848;2022-09-09T06:50:47;18.10;99.90
37356;DHT22;48747;50.250;18.848;2022-09-09T06:52:51;18.10;99.90
37356;DHT22;48747;50.250;18.848;2022-09-09T06:54:54;18.20;99.90
37356;DHT22;48747;50.250;18.848;2022-09-09T06:56:59;18.30;99.90
37356;DHT22;48747;50.250;18.848;2022-09-09T06:59:11;18.30;99.90
37356;DHT22;48747;50.250;18.848;2022-09-09T07:01:19;18.50;99.90
37356;DHT22;48747;50.250;18.848;2022-09-09T07:03:19;18.50;99.90
37356;DHT22;48747;50.250;18.848;2022-09-09T07:05:22;18.50;99.90
37356;DHT22;48747;50.250;18.848;2022-09-09T07:07:27;18.50;99.90
37356;DHT22;48747;50.250;18.848;2022-09-09T07:09:31;18.50;99.90
37356;DHT22;48747;50.250;18.848;2022-09-09T07:11:44;18.50;99.90
37356;DHT22;48747;50.250;18.848;2022-09-09T07:13:43;18.50;99.90
37356;DHT22;48747;50.250;18.848;2022-09-09T07:15:46;18.60;99.90
37356;DHT22;48747;50.250;18.848;2022-09-09T07:17:49;18.60;99.90
37356;DHT22;48747;50.250;18.848;2022-09-09T07:19:52;18.80;99.90
37356;DHT22;48747;50.250;18.848;2022-09-09T07:21:55;18.90;99.90
37356;DHT22;48747;50.250;18.848;2022-09-09T07:24:06;19.00;99.90
37356;DHT22;48747;50.250;18.848;2022-09-09T07:26:14;19.10;99.90
37356;DHT22;48747;50.250;18.848;2022-09-09T07:28:18;19.10;99.90
37356;DHT22;48747;50.250;18.848;2022-09-09T07:30:21;19.10;99.90
37356;DHT22;48747;50.250;18.848;2022-09-09T07:32:24;19.10;99.90
37356;DHT22;48747;50.250;18.848;2022-09-09T07:34:32;19.20;99.90
37356;DHT22;48747;50.250;18.848;2022-09-09T07:36:38;19.20;99.90
37356;DHT22;48747;50.250;18.848;2022-09-09T07:38:43;19.30;99.90
37356;DHT22;48747;50.250;18.848;2022-09-09T07:40:51;19.30;99.90
37356;DHT22;48747;50.250;18.848;2022-09-09T07:42:54;19.40;99.90
37356;DHT22;48747;50.250;18.848;2022-09-09T07:44:58;19.50;99.90
37356;DHT22;48747;50.250;18.848;2022-09-09T07:47:02;19.70;99.90
37356;DHT22;48747;50.250;18.848;2022-09-09T07:49:05;19.70;99.90
37356;DHT22;48747;50.250;18.848;2022-09-09T07:51:14;19.80;99.90
37356;DHT22;48747;50.250;18.848;2022-09-09T07:53:19;19.80;99.90
37356;DHT22;48747;50.250;18.848;2022-09-09T07:55:24;19.90;99.90
37356;DHT22;48747;50.250;18.848;2022-09-09T07:57:29;20.00;99.90
37356;DHT22;48747;50.250;18.848;2022-09-09T07:59:38;20.10;99.90
37356;DHT22;48747;50.250;18.848;2022-09-09T08:01:47;20.20;99.90
37356;DHT22;48747;50.250;18.848;2022-09-09T08:03:55;20.20;99.90
37356;DHT22;48747;50.250;18.848;2022-09-09T08:06:07;20.30;99.90
37356;DHT22;48747;50.250;18.848;2022-09-09T08:08:11;20.40;99.90
37356;DHT22;48747;50.250;18.848;2022-09-09T08:10:13;20.40;99.90
37356;DHT22;48747;50.250;18.848;2022-09-09T08:12:18;20.50;99.90
37356;DHT22;48747;50.250;18.848;2022-09-09T08:14:21;20.60;99.90
37356;DHT22;48747;50.250;18.848;2022-09-09T08:16:30;20.60;99.90
37356;DHT22;48747;50.250;18.848;2022-09-09T08:18:35;20.60;99.90
37356;DHT22;48747;50.250;18.848;2022-09-09T08:20:40;20.70;99.90
37356;DHT22;48747;50.250;18.848;2022-09-09T08:22:51;20.80;99.90
37356;DHT22;48747;50.250;18.848;2022-09-09T08:24:52;20.90;99.90
37356;DHT22;48747;50.250;18.848;2022-09-09T08:26:56;21.10;99.90
37356;DHT22;48747;50.250;18.848;2022-09-09T08:29:00;21.30;99.90
37356;DHT22;48747;50.250;18.848;2022-09-09T08:31:15;21.40;99.90
37356;DHT22;48747;50.250;18.848;2022-09-09T08:33:19;21.60;99.90
37356;DHT22;48747;50.250;18.848;2022-09-09T08:35:22;21.60;99.90
37356;DHT22;48747;50.250;18.848;2022-09-09T08:37:25;21.50;99.90
37356;DHT22;48747;50.250;18.848;2022-09-09T08:39:28;21.50;99.90
37356;DHT22;48747;50.250;18.848;2022-09-09T08:43:46;21.50;99.90
37356;DHT22;48747;50.250;18.848;2022-09-09T08:46:02;21.50;99.90
37356;DHT22;48747;50.250;18.848;2022-09-09T08:48:19;21.50;99.90
37356;DHT22;48747;50.250;18.848;2022-09-09T08:50:29;21.50;99.90
37356;DHT22;48747;50.250;18.848;2022-09-09T08:54:52;21.60;99.90
37356;DHT22;48747;50.250;18.848;2022-09-09T08:56:58;21.70;99.90
37356;DHT22;48747;50.250;18.848;2022-09-09T08:59:02;21.80;99.90
37356;DHT22;48747;50.250;18.848;2022-09-09T09:03:57;21.80;99.90
37356;DHT22;48747;50.250;18.848;2022-09-09T09:10:48;21.70;99.90
37356;DHT22;48747;50.250;18.848;2022-09-09T09:12:53;21.80;99.90
37356;DHT22;48747;50.250;18.848;2022-09-09T09:14:56;21.80;99.90
37356;DHT22;48747;50.250;18.848;2022-09-09T09:17:04;21.90;99.90
37356;DHT22;48747;50.250;18.848;2022-09-09T09:19:10;22.00;99.90
37356;DHT22;48747;50.250;18.848;2022-09-09T09:22:17;22.00;99.90
37356;DHT22;48747;50.250;18.848;2022-09-09T09:23:32;22.10;99.90
37356;DHT22;48747;50.250;18.848;2022-09-09T09:25:37;22.20;99.90
37356;DHT22;48747;50.250;18.848;2022-09-09T09:28:01;22.30;99.90
37356;DHT22;48747;50.250;18.848;2022-09-09T09:30:15;22.40;99.90
37356;DHT22;48747;50.250;18.848;2022-09-09T09:32:20;22.60;99.90
37356;DHT22;48747;50.250;18.848;2022-09-09T09:34:24;22.70;99.90
37356;DHT22;48747;50.250;18.848;2022-09-09T09:36:42;22.80;99.90
37356;DHT22;48747;50.250;18.848;2022-09-09T09:39:02;22.80;99.90
37356;DHT22;48747;50.250;18.848;2022-09-09T09:41:02;22.80;99.90
37356;DHT22;48747;50.250;18.848;2022-09-09T09:43:05;22.80;99.90
37356;DHT22;48747;50.250;18.848;2022-09-09T09:45:20;22.80;99.90
37356;DHT22;48747;50.250;18.848;2022-09-09T09:47:22;22.80;99.90
37356;DHT22;48747;50.250;18.848;2022-09-09T09:49:27;22.90;99.90
37356;DHT22;48747;50.250;18.848;2022-09-09T09:51:31;22.90;99.90
37356;DHT22;48747;50.250;18.848;2022-09-09T09:53:36;22.80;99.90
37356;DHT22;48747;50.250;18.848;2022-09-09T09:55:46;22.70;99.90
37356;DHT22;48747;50.250;18.848;2022-09-09T09:57:46;22.60;99.90
37356;DHT22;48747;50.250;18.848;2022-09-09T10:00:00;22.60;99.90
37356;DHT22;48747;50.250;18.848;2022-09-09T10:04:21;22.60;99.90
37356;DHT22;48747;50.250;18.848;2022-09-09T10:06:36;22.70;99.90
37356;DHT22;48747;50.250;18.848;2022-09-09T10:08:45;22.70;99.90
37356;DHT22;48747;50.250;18.848;2022-09-09T10:13:25;23.00;99.90
37356;DHT22;48747;50.250;18.848;2022-09-09T10:22:28;22.80;99.90
37356;DHT22;48747;50.250;18.848;2022-09-09T10:27:46;22.70;99.90
37356;DHT22;48747;50.250;18.848;2022-09-09T10:37:04;22.50;99.90
37356;DHT22;48747;50.250;18.848;2022-09-09T10:39:31;22.70;99.90
37356;DHT22;48747;50.250;18.848;2022-09-09T10:48:31;23.20;99.90
37356;DHT22;48747;50.250;18.848;2022-09-09T10:55:19;23.20;99.20
37356;DHT22;48747;50.250;18.848;2022-09-09T10:57:33;23.30;99.40
37356;DHT22;48747;50.250;18.848;2022-09-09T10:59:41;23.50;99.80
37356;DHT22;48747;50.250;18.848;2022-09-09T11:01:52;23.80;98.40
37356;DHT22;48747;50.250;18.848;2022-09-09T11:03:59;23.90;96.50
37356;DHT22;48747;50.250;18.848;2022-09-09T11:06:06;23.70;96.30
37356;DHT22;48747;50.250;18.848;2022-09-09T11:08:20;23.60;97.00
37356;DHT22;48747;50.250;18.848;2022-09-09T11:12:46;23.10;98.60
37356;DHT22;48747;50.250;18.848;2022-09-09T11:14:57;23.10;98.00
37356;DHT22;48747;50.250;18.848;2022-09-09T11:17:04;23.30;96.80
37356;DHT22;48747;50.250;18.848;2022-09-09T11:19:26;23.60;93.60
37356;DHT22;48747;50.250;18.848;2022-09-09T11:21:32;23.80;93.70
37356;DHT22;48747;50.250;18.848;2022-09-09T11:23:41;23.90;92.50
37356;DHT22;48747;50.250;18.848;2022-09-09T11:25:52;24.00;92.60
37356;DHT22;48747;50.250;18.848;2022-09-09T11:28:09;24.10;91.50
37356;DHT22;48747;50.250;18.848;2022-09-09T11:30:12;24.20;91.60
37356;DHT22;48747;50.250;18.848;2022-09-09T11:37:07;24.20;90.50
37356;DHT22;48747;50.250;18.848;2022-09-09T11:41:36;24.20;90.10
37356;DHT22;48747;50.250;18.848;2022-09-09T11:43:45;24.30;90.10
37356;DHT22;48747;50.250;18.848;2022-09-09T11:45:53;24.50;86.60
37356;DHT22;48747;50.250;18.848;2022-09-09T11:48:00;24.60;85.20
37356;DHT22;48747;50.250;18.848;2022-09-09T11:52:36;24.80;85.60
37356;DHT22;48747;50.250;18.848;2022-09-09T11:54:49;25.00;85.50
37356;DHT22;48747;50.250;18.848;2022-09-09T11:56:52;24.80;84.30
37356;DHT22;48747;50.250;18.848;2022-09-09T11:59:06;24.60;83.90
37356;DHT22;48747;50.250;18.848;2022-09-09T12:01:14;24.60;84.10
37356;DHT22;48747;50.250;18.848;2022-09-09T12:03:44;24.30;83.50
37356;DHT22;48747;50.250;18.848;2022-09-09T12:05:47;24.10;82.90
37356;DHT22;48747;50.250;18.848;2022-09-09T12:07:56;24.10;85.20
37356;DHT22;48747;50.250;18.848;2022-09-09T12:10:17;24.10;86.40
37356;DHT22;48747;50.250;18.848;2022-09-09T12:14:54;24.00;86.80
37356;DHT22;48747;50.250;18.848;2022-09-09T12:16:32;24.00;86.60
37356;DHT22;48747;50.250;18.848;2022-09-09T12:19:03;23.80;85.30
37356;DHT22;48747;50.250;18.848;2022-09-09T12:28:20;23.80;88.30
37356;DHT22;48747;50.250;18.848;2022-09-09T12:30:27;23.70;88.20
37356;DHT22;48747;50.250;18.848;2022-09-09T12:32:31;23.60;85.90
37356;DHT22;48747;50.250;18.848;2022-09-09T12:34:39;23.70;87.00
37356;DHT22;48747;50.250;18.848;2022-09-09T12:36:44;23.80;87.30
37356;DHT22;48747;50.250;18.848;2022-09-09T12:38:49;23.90;86.20
37356;DHT22;48747;50.250;18.848;2022-09-09T12:40:55;24.00;84.40
37356;DHT22;48747;50.250;18.848;2022-09-09T12:42:59;24.00;84.50
37356;DHT22;48747;50.250;18.848;2022-09-09T12:45:14;24.10;84.00
37356;DHT22;48747;50.250;18.848;2022-09-09T12:47:10;24.10;86.10
37356;DHT22;48747;50.250;18.848;2022-09-09T12:49:29;24.10;84.30
37356;DHT22;48747;50.250;18.848;2022-09-09T12:51:34;24.10;84.10
37356;DHT22;48747;50.250;18.848;2022-09-09T12:53:39;24.00;85.10
37356;DHT22;48747;50.250;18.848;2022-09-09T12:55:51;24.00;86.80
37356;DHT22;48747;50.250;18.848;2022-09-09T12:57:54;24.00;86.70
37356;DHT22;48747;50.250;18.848;2022-09-09T13:00:14;23.90;85.40
37356;DHT22;48747;50.250;18.848;2022-09-09T13:02:21;23.90;84.60
37356;DHT22;48747;50.250;18.848;2022-09-09T13:04:25;24.00;85.00
37356;DHT22;48747;50.250;18.848;2022-09-09T13:06:30;23.90;84.30
37356;DHT22;48747;50.250;18.848;2022-09-09T13:08:33;24.00;82.60
37356;DHT22;48747;50.250;18.848;2022-09-09T13:10:44;23.80;82.10
37356;DHT22;48747;50.250;18.848;2022-09-09T13:12:43;23.70;80.60
37356;DHT22;48747;50.250;18.848;2022-09-09T13:14:48;23.70;82.30
37356;DHT22;48747;50.250;18.848;2022-09-09T13:16:58;23.60;82.00
37356;DHT22;48747;50.250;18.848;2022-09-09T13:19:13;23.60;83.30
37356;DHT22;48747;50.250;18.848;2022-09-09T13:21:10;23.50;82.30
37356;DHT22;48747;50.250;18.848;2022-09-09T13:23:13;23.40;80.80
37356;DHT22;48747;50.250;18.848;2022-09-09T13:25:25;23.30;83.80
37356;DHT22;48747;50.250;18.848;2022-09-09T13:27:34;23.20;83.10
37356;DHT22;48747;50.250;18.848;2022-09-09T13:29:39;23.30;84.50
37356;DHT22;48747;50.250;18.848;2022-09-09T13:31:42;23.30;83.30
37356;DHT22;48747;50.250;18.848;2022-09-09T13:33:45;23.30;82.80
37356;DHT22;48747;50.250;18.848;2022-09-09T13:35:51;23.30;82.70
37356;DHT22;48747;50.250;18.848;2022-09-09T13:37:55;23.30;82.60
37356;DHT22;48747;50.250;18.848;2022-09-09T13:39:58;23.40;81.80
37356;DHT22;48747;50.250;18.848;2022-09-09T13:42:04;23.30;80.10
37356;DHT22;48747;50.250;18.848;2022-09-09T13:44:20;23.20;79.90
37356;DHT22;48747;50.250;18.848;2022-09-09T13:46:32;23.20;80.20
37356;DHT22;48747;50.250;18.848;2022-09-09T13:48:34;23.30;81.20
37356;DHT22;48747;50.250;18.848;2022-09-09T13:50:37;23.20;81.00
37356;DHT22;48747;50.250;18.848;2022-09-09T13:52:40;23.30;79.80
37356;DHT22;48747;50.250;18.848;2022-09-09T13:54:48;23.20;79.50
37356;DHT22;48747;50.250;18.848;2022-09-09T13:56:48;23.30;80.40
37356;DHT22;48747;50.250;18.848;2022-09-09T13:58:51;23.30;80.30
37356;DHT22;48747;50.250;18.848;2022-09-09T14:00:54;23.30;80.00
37356;DHT22;48747;50.250;18.848;2022-09-09T14:02:57;23.20;79.70
37356;DHT22;48747;50.250;18.848;2022-09-09T14:05:02;23.30;82.10
37356;DHT22;48747;50.250;18.848;2022-09-09T14:07:05;23.30;80.80
37356;DHT22;48747;50.250;18.848;2022-09-09T14:09:11;23.30;81.00
37356;DHT22;48747;50.250;18.848;2022-09-09T14:11:14;23.30;82.30
37356;DHT22;48747;50.250;18.848;2022-09-09T14:13:17;23.30;82.10
37356;DHT22;48747;50.250;18.848;2022-09-09T14:15:22;23.30;83.00
37356;DHT22;48747;50.250;18.848;2022-09-09T14:17:26;23.30;82.00
37356;DHT22;48747;50.250;18.848;2022-09-09T14:19:31;23.30;82.30
37356;DHT22;48747;50.250;18.848;2022-09-09T14:21:34;23.50;83.60
37356;DHT22;48747;50.250;18.848;2022-09-09T14:23:37;23.40;82.00
37356;DHT22;48747;50.250;18.848;2022-09-09T14:25:42;23.60;81.90
37356;DHT22;48747;50.250;18.848;2022-09-09T14:27:45;23.70;81.80
37356;DHT22;48747;50.250;18.848;2022-09-09T14:29:49;23.70;81.30
37356;DHT22;48747;50.250;18.848;2022-09-09T14:31:52;23.70;79.50
37356;DHT22;48747;50.250;18.848;2022-09-09T14:33:56;23.70;80.50
37356;DHT22;48747;50.250;18.848;2022-09-09T14:36:01;23.70;81.70
37356;DHT22;48747;50.250;18.848;2022-09-09T14:38:05;23.80;82.10